sensor_id;sensor_type;location;lat;lon;timestamp;temperature;humidity
5802;DHT22;2927;49.366;8.530;2022-07-29T00:00:47;22.80;1.00
5802;DHT22;2927;49.366;8.530;2022-07-29T00:03:12;22.80;1.00
5802;DHT22;2927;49.366;8.530;2022-07-29T00:05:39;22.70;1.00
5802;DHT22;2927;49.366;8.530;2022-07-29T00:08:05;22.70;1.00
5802;DHT22;2927;49.366;8.530;2022-07-29T00:10:31;22.70;1.00
5802;DHT22;2927;49.366;8.530;2022-07-29T00:12:56;22.60;1.00
5802;DHT22;2927;49.366;8.530;2022-07-29T00:15:22;22.60;1.00
5802;DHT22;2927;49.366;8.530;2022-07-29T00:17:47;22.50;1.00
5802;DHT22;2927;49.366;8.530;2022-07-29T00:20:13;22.50;1.00
5802;DHT22;2927;49.366;8.530;2022-07-29T00:22:39;22.50;1.00
5802;DHT22;2927;49.366;8.530;2022-07-29T00:25:05;22.40;1.00
5802;DHT22;2927;49.366;8.530;2022-07-29T00:27:31;22.40;1.00
5802;DHT22;2927;49.366;8.530;2022-07-29T00:29:56;22.40;1.00
5802;DHT22;2927;49.366;8.530;2022-07-29T00:32:22;22.30;1.00
5802;DHT22;2927;49.366;8.530;2022-07-29T00:34:47;22.30;42.90
5802;DHT22;2927;49.366;8.530;2022-07-29T00:37:31;22.40;99.90
5802;DHT22;2927;49.366;8.530;2022-07-29T00:39:57;22.30;99.90
5802;DHT22;2927;49.366;8.530;2022-07-29T00:42:22;22.30;99.90
5802;DHT22;2927;49.366;8.530;2022-07-29T00:44:48;22.30;99.90
5802;DHT22;2927;49.366;8.530;2022-07-29T00:47:14;22.20;99.90
5802;DHT22;2927;49.366;8.530;2022-07-29T00:49:41;22.10;99.90
5802;DHT22;2927;49.366;8.530;2022-07-29T00:52:08;22.10;1.00
5802;DHT22;2927;49.366;8.530;2022-07-29T00:54:34;22.10;1.00
5802;DHT22;2927;49.366;8.530;2022-07-29T00:57:00;22.10;1.00
5802;DHT22;2927;49.366;8.530;2022-07-29T00:59:27;22.10;1.00
5802;DHT22;2927;49.366;8.530;2022-07-29T01:01:53;22.10;1.00
5802;DHT22;2927;49.366;8.530;2022-07-29T01:04:20;22.10;1.00
5802;DHT22;2927;49.366;8.530;2022-07-29T01:06:47;22.00;1.00
5802;DHT22;2927;49.366;8.530;2022-07-29T01:09:14;22.00;1.00
5802;DHT22;2927;49.366;8.530;2022-07-29T01:11:40;22.00;1.00
5802;DHT22;2927;49.366;8.530;2022-07-29T01:14:07;22.00;1.00
5802;DHT22;2927;49.366;8.530;2022-07-29T01:16:39;22.00;1.00
5802;DHT22;2927;49.366;8.530;2022-07-29T01:21:57;21.90;1.00
5802;DHT22;2927;49.366;8.530;2022-07-29T01:27:04;21.80;99.90
5802;DHT22;2927;49.366;8.530;2022-07-29T01:29:32;21.80;99.90
5802;DHT22;2927;49.366;8.530;2022-07-29T01:32:18;21.80;99.90
5802;DHT22;2927;49.366;8.530;2022-07-29T01:34:50;21.80;99.90
5802;DHT22;2927;49.366;8.530;2022-07-29T01:39:52;21.90;99.90
5802;DHT22;2927;49.366;8.530;2022-07-29T01:45:10;22.00;99.90
5802;DHT22;2927;49.366;8.530;2022-07-29T01:47:41;22.00;99.90
5802;DHT22;2927;49.366;8.530;2022-07-29T01:50:11;21.90;99.90
5802;DHT22;2927;49.366;8.530;2022-07-29T01:52:56;21.80;1.00
5802;DHT22;2927;49.366;8.530;2022-07-29T01:55:26;21.70;1.00
5802;DHT22;2927;49.366;8.530;2022-07-29T01:57:53;21.60;1.00
5802;DHT22;2927;49.366;8.530;2022-07-29T02:00:22;21.50;99.90
5802;DHT22;2927;49.366;8.530;2022-07-29T02:02:48;21.40;99.90
5802;DHT22;2927;49.366;8.530;2022-07-29T02:05:16;21.40;1.00
5802;DHT22;2927;49.366;8.530;2022-07-29T02:07:43;21.40;1.00
5802;DHT22;2927;49.366;8.530;2022-07-29T02:10:10;21.40;1.00
5802;DHT22;2927;49.366;8.530;2022-07-29T02:12:38;21.40;1.00
5802;DHT22;2927;49.366;8.530;2022-07-29T02:15:05;21.40;99.90
5802;DHT22;2927;49.366;8.530;2022-07-29T02:17:49;21.50;99.90
5802;DHT22;2927;49.366;8.530;2022-07-29T02:20:17;21.50;99.90
5802;DHT22;2927;49.366;8.530;2022-07-29T02:22:44;21.50;99.90
5802;DHT22;2927;49.366;8.530;2022-07-29T02:25:11;21.40;99.90
5802;DHT22;2927;49.366;8.530;2022-07-29T02:27:37;21.40;99.90
5802;DHT22;2927;49.366;8.530;2022-07-29T02:30:05;21.40;99.90
5802;DHT22;2927;49.366;8.530;2022-07-29T02:32:34;21.40;99.90
5802;DHT22;2927;49.366;8.530;2022-07-29T02:35:01;21.40;99.90
5802;DHT22;2927;49.366;8.530;2022-07-29T02:37:28;21.40;99.90
5802;DHT22;2927;49.366;8.530;2022-07-29T02:39:55;21.30;99.90
5802;DHT22;2927;49.366;8.530;2022-07-29T02:42:24;21.30;1.00
5802;DHT22;2927;49.366;8.530;2022-07-29T02:44:51;21.30;1.00
5802;DHT22;2927;49.366;8.530;2022-07-29T02:47:46;21.30;1.00
5802;DHT22;2927;49.366;8.530;2022-07-29T02:50:20;21.20;1.00
5802;DHT22;2927;49.366;8.530;2022-07-29T02:52:53;21.10;1.00
5802;DHT22;2927;49.366;8.530;2022-07-29T02:55:45;21.00;92.80
5802;DHT22;2927;49.366;8.530;2022-07-29T02:58:24;21.00;99.90
5802;DHT22;2927;49.366;8.530;2022-07-29T03:00:55;21.00;99.90
5802;DHT22;2927;49.366;8.530;2022-07-29T03:03:22;21.10;95.40
5802;DHT22;2927;49.366;8.530;2022-07-29T03:05:49;21.10;99.90
5802;DHT22;2927;49.366;8.530;2022-07-29T03:08:17;21.10;99.90
5802;DHT22;2927;49.366;8.530;2022-07-29T03:10:44;21.00;99.90
5802;DHT22;2927;49.366;8.530;2022-07-29T03:13:11;21.00;99.90
5802;DHT22;2927;49.366;8.530;2022-07-29T03:15:38;21.00;99.90
5802;DHT22;2927;49.366;8.530;2022-07-29T03:18:05;21.00;1.00
5802;DHT22;2927;49.366;8.530;2022-07-29T03:20:31;21.00;1.00
5802;DHT22;2927;49.366;8.530;2022-07-29T03:22:57;20.80;1.00
5802;DHT22;2927;49.366;8.530;2022-07-29T03:25:22;20.70;1.00
5802;DHT22;2927;49.366;8.530;2022-07-29T03:27:48;20.60;99.90
5802;DHT22;2927;49.366;8.530;2022-07-29T03:30:14;20.60;1.00
5802;DHT22;2927;49.366;8.530;2022-07-29T03:32:41;20.50;1.00
5802;DHT22;2927;49.366;8.530;2022-07-29T03:35:07;20.50;99.90
5802;DHT22;2927;49.366;8.530;2022-07-29T03:37:34;20.50;99.90
5802;DHT22;2927;49.366;8.530;2022-07-29T03:40:03;20.50;99.90
5802;DHT22;2927;49.366;8.530;2022-07-29T03:42:32;20.50;99.90
5802;DHT22;2927;49.366;8.530;2022-07-29T03:45:03;20.40;99.90
5802;DHT22;2927;49.366;8.530;2022-07-29T03:47:32;20.40;99.90
5802;DHT22;2927;49.366;8.530;2022-07-29T03:50:05;20.40;1.00
5802;DHT22;2927;49.366;8.530;2022-07-29T03:52:31;20.40;1.00
5802;DHT22;2927;49.366;8.530;2022-07-29T03:54:57;20.40;1.00
5802;DHT22;2927;49.366;8.530;2022-07-29T03:57:27;20.40;1.00
5802;DHT22;2927;49.366;8.530;2022-07-29T03:59:54;20.40;1.00
5802;DHT22;2927;49.366;8.530;2022-07-29T04:02:20;20.40;1.00
5802;DHT22;2927;49.366;8.530;2022-07-29T04:04:46;20.40;1.00
5802;DHT22;2927;49.366;8.530;2022-07-29T04:07:13;20.40;99.90
5802;DHT22;2927;49.366;8.530;2022-07-29T04:09:39;20.20;99.90
5802;DHT22;2927;49.366;8.530;2022-07-29T04:12:04;20.20;99.90
5802;DHT22;2927;49.366;8.530;2022-07-29T04:14:34;20.20;99.90
5802;DHT22;2927;49.366;8.530;2022-07-29T04:17:00;20.10;99.90
5802;DHT22;2927;49.366;8.530;2022-07-29T04:19:26;20.00;99.90
5802;DHT22;2927;49.366;8.530;2022-07-29T04:21:52;19.90;99.90
5802;DHT22;2927;49.366;8.530;2022-07-29T04:24:18;19.90;1.00
5802;DHT22;2927;49.366;8.530;2022-07-29T04:26:44;20.00;1.00
5802;DHT22;2927;49.366;8.530;2022-07-29T04:29:10;20.00;1.00
5802;DHT22;2927;49.366;8.530;2022-07-29T04:31:37;20.10;1.00
5802;DHT22;2927;49.366;8.530;2022-07-29T04:34:02;20.10;99.90
5802;DHT22;2927;49.366;8.530;2022-07-29T04:36:28;20.10;1.00
5802;DHT22;2927;49.366;8.530;2022-07-29T04:38:53;20.20;1.00
5802;DHT22;2927;49.366;8.530;2022-07-29T04:41:19;20.20;1.00
5802;DHT22;2927;49.366;8.530;2022-07-29T04:43:44;20.20;1.00
5802;DHT22;2927;49.366;8.530;2022-07-29T04:46:10;20.20;99.90
5802;DHT22;2927;49.366;8.530;2022-07-29T04:48:35;20.30;99.90
5802;DHT22;2927;49.366;8.530;2022-07-29T04:51:01;20.30;99.90
5802;DHT22;2927;49.366;8.530;2022-07-29T04:53:27;20.30;99.90
5802;DHT22;2927;49.366;8.530;2022-07-29T04:55:52;20.40;1.00
5802;DHT22;2927;49.366;8.530;2022-07-29T04:58:18;20.40;99.90
5802;DHT22;2927;49.366;8.530;2022-07-29T05:00:43;20.50;99.90
5802;DHT22;2927;49.366;8.530;2022-07-29T05:03:09;20.60;99.90
5802;DHT22;2927;49.366;8.530;2022-07-29T05:05:35;20.70;99.90
5802;DHT22;2927;49.366;8.530;2022-07-29T05:08:00;20.60;99.90
5802;DHT22;2927;49.366;8.530;2022-07-29T05:10:26;20.70;99.90
5802;DHT22;2927;49.366;8.530;2022-07-29T05:12:52;20.70;99.90
5802;DHT22;2927;49.366;8.530;2022-07-29T05:15:17;20.80;47.90
5802;DHT22;2927;49.366;8.530;2022-07-29T05:17:43;20.90;1.00
5802;DHT22;2927;49.366;8.530;2022-07-29T05:20:09;20.80;1.00
5802;DHT22;2927;49.366;8.530;2022-07-29T05:22:35;20.90;1.00
5802;DHT22;2927;49.366;8.530;2022-07-29T05:25:01;21.00;1.00
5802;DHT22;2927;49.366;8.530;2022-07-29T05:27:27;21.20;1.00
5802;DHT22;2927;49.366;8.530;2022-07-29T05:29:53;21.30;1.00
5802;DHT22;2927;49.366;8.530;2022-07-29T05:32:18;21.40;99.90
5802;DHT22;2927;49.366;8.530;2022-07-29T05:34:44;21.30;99.90
5802;DHT22;2927;49.366;8.530;2022-07-29T05:37:09;21.20;1.00
5802;DHT22;2927;49.366;8.530;2022-07-29T05:39:35;21.40;99.90
5802;DHT22;2927;49.366;8.530;2022-07-29T05:42:00;21.60;1.00
5802;DHT22;2927;49.366;8.530;2022-07-29T05:44:26;21.60;1.00
5802;DHT22;2927;49.366;8.530;2022-07-29T05:46:51;21.60;1.00
5802;DHT22;2927;49.366;8.530;2022-07-29T05:49:17;21.70;99.90
5802;DHT22;2927;49.366;8.530;2022-07-29T05:51:43;22.00;99.90
5802;DHT22;2927;49.366;8.530;2022-07-29T05:54:08;22.00;99.90
5802;DHT22;2927;49.366;8.530;2022-07-29T05:56:35;22.10;1.00
5802;DHT22;2927;49.366;8.530;2022-07-29T05:59:01;22.20;1.00
5802;DHT22;2927;49.366;8.530;2022-07-29T06:01:27;22.40;99.90
5802;DHT22;2927;49.366;8.530;2022-07-29T06:03:53;22.50;99.90
5802;DHT22;2927;49.366;8.530;2022-07-29T06:06:18;22.50;99.90
5802;DHT22;2927;49.366;8.530;2022-07-29T06:08:44;22.50;1.00
5802;DHT22;2927;49.366;8.530;2022-07-29T06:11:09;22.80;1.00
5802;DHT22;2927;49.366;8.530;2022-07-29T06:13:35;23.10;1.00
5802;DHT22;2927;49.366;8.530;2022-07-29T06:16:00;23.20;99.90
5802;DHT22;2927;49.366;8.530;2022-07-29T06:18:26;23.40;99.90
5802;DHT22;2927;49.366;8.530;2022-07-29T06:20:52;23.90;1.00
5802;DHT22;2927;49.366;8.530;2022-07-29T06:23:19;24.10;99.90
5802;DHT22;2927;49.366;8.530;2022-07-29T06:25:45;23.80;1.00
5802;DHT22;2927;49.366;8.530;2022-07-29T06:28:11;24.30;99.90
5802;DHT22;2927;49.366;8.530;2022-07-29T06:30:36;24.40;99.90
5802;DHT22;2927;49.366;8.530;2022-07-29T06:33:02;24.80;1.00
5802;DHT22;2927;49.366;8.530;2022-07-29T06:35:28;24.70;1.00
5802;DHT22;2927;49.366;8.530;2022-07-29T06:37:54;24.60;1.00
5802;DHT22;2927;49.366;8.530;2022-07-29T06:40:20;24.40;1.00
5802;DHT22;2927;49.366;8.530;2022-07-29T06:43:04;24.60;1.00
5802;DHT22;2927;49.366;8.530;2022-07-29T06:45:29;24.50;1.00
5802;DHT22;2927;49.366;8.530;2022-07-29T06:47:55;24.40;1.00
5802;DHT22;2927;49.366;8.530;2022-07-29T06:50:20;24.80;1.00
5802;DHT22;2927;49.366;8.530;2022-07-29T06:52:47;24.80;1.00
5802;DHT22;2927;49.366;8.530;2022-07-29T06:55:12;24.70;1.00
5802;DHT22;2927;49.366;8.530;2022-07-29T06:57:38;24.20;1.00
5802;DHT22;2927;49.366;8.530;2022-07-29T07:00:05;24.10;1.00
5802;DHT22;2927;49.366;8.530;2022-07-29T07:02:30;24.50;1.00
5802;DHT22;2927;49.366;8.530;2022-07-29T07:04:56;24.60;1.00
5802;DHT22;2927;49.366;8.530;2022-07-29T07:07:21;24.60;1.00
5802;DHT22;2927;49.366;8.530;2022-07-29T07:09:47;24.40;1.00
5802;DHT22;2927;49.366;8.530;2022-07-29T07:12:12;24.20;1.00
5802;DHT22;2927;49.366;8.530;2022-07-29T07:14:38;24.30;1.00
5802;DHT22;2927;49.366;8.530;2022-07-29T07:17:05;24.60;1.00
5802;DHT22;2927;49.366;8.530;2022-07-29T07:19:32;24.70;1.00
5802;DHT22;2927;49.366;8.530;2022-07-29T07:21:57;24.70;1.00
5802;DHT22;2927;49.366;8.530;2022-07-29T07:24:23;24.80;99.90
5802;DHT22;2927;49.366;8.530;2022-07-29T07:26:48;25.20;99.90
5802;DHT22;2927;49.366;8.530;2022-07-29T07:29:14;25.20;99.90
5802;DHT22;2927;49.366;8.530;2022-07-29T07:31:39;25.00;99.90
5802;DHT22;2927;49.366;8.530;2022-07-29T07:34:05;25.00;99.90
5802;DHT22;2927;49.366;8.530;2022-07-29T07:36:31;25.80;99.90
5802;DHT22;2927;49.366;8.530;2022-07-29T07:38:56;26.60;99.90
5802;DHT22;2927;49.366;8.530;2022-07-29T07:41:22;26.70;99.90
5802;DHT22;2927;49.366;8.530;2022-07-29T07:43:48;27.20;62.40
5802;DHT22;2927;49.366;8.530;2022-07-29T07:46:14;27.10;1.00
5802;DHT22;2927;49.366;8.530;2022-07-29T07:48:40;26.70;30.30
5802;DHT22;2927;49.366;8.530;2022-07-29T07:51:05;26.20;99.90
5802;DHT22;2927;49.366;8.530;2022-07-29T07:53:32;26.00;99.90
5802;DHT22;2927;49.366;8.530;2022-07-29T07:55:58;26.40;99.90
5802;DHT22;2927;49.366;8.530;2022-07-29T07:58:23;26.10;99.90
5802;DHT22;2927;49.366;8.530;2022-07-29T08:00:49;26.40;99.90
5802;DHT22;2927;49.366;8.530;2022-07-29T08:03:14;26.40;99.90
5802;DHT22;2927;49.366;8.530;2022-07-29T08:05:40;26.30;99.90
5802;DHT22;2927;49.366;8.530;2022-07-29T08:08:06;26.30;99.90
5802;DHT22;2927;49.366;8.530;2022-07-29T08:10:32;27.40;25.20
5802;DHT22;2927;49.366;8.530;2022-07-29T08:13:16;27.70;1.00
5802;DHT22;2927;49.366;8.530;2022-07-29T08:15:42;27.40;1.00
5802;DHT22;2927;49.366;8.530;2022-07-29T08:18:08;27.00;1.00
5802;DHT22;2927;49.366;8.530;2022-07-29T08:20:35;27.30;1.00
5802;DHT22;2927;49.366;8.530;2022-07-29T08:23:02;27.50;1.00
5802;DHT22;2927;49.366;8.530;2022-07-29T08:25:27;27.50;1.00
5802;DHT22;2927;49.366;8.530;2022-07-29T08:27:53;27.80;1.00
5802;DHT22;2927;49.366;8.530;2022-07-29T08:30:18;28.30;1.00
5802;DHT22;2927;49.366;8.530;2022-07-29T08:32:44;27.70;1.00
5802;DHT22;2927;49.366;8.530;2022-07-29T08:35:10;27.80;1.00
5802;DHT22;2927;49.366;8.530;2022-07-29T08:37:35;27.70;1.00
5802;DHT22;2927;49.366;8.530;2022-07-29T08:40:01;27.70;1.00
5802;DHT22;2927;49.366;8.530;2022-07-29T08:42:26;27.80;1.00
5802;DHT22;2927;49.366;8.530;2022-07-29T08:44:52;28.50;1.00
5802;DHT22;2927;49.366;8.530;2022-07-29T08:47:18;28.70;1.00
5802;DHT22;2927;49.366;8.530;2022-07-29T08:49:44;28.60;1.00
5802;DHT22;2927;49.366;8.530;2022-07-29T08:52:12;29.00;1.00
5802;DHT22;2927;49.366;8.530;2022-07-29T08:54:39;28.20;1.00
5802;DHT22;2927;49.366;8.530;2022-07-29T08:57:08;28.00;1.00
5802;DHT22;2927;49.366;8.530;2022-07-29T08:59:35;28.50;1.00
5802;DHT22;2927;49.366;8.530;2022-07-29T09:02:02;29.00;1.00
5802;DHT22;2927;49.366;8.530;2022-07-29T09:04:32;28.60;1.00
5802;DHT22;2927;49.366;8.530;2022-07-29T09:07:00;28.40;1.00
5802;DHT22;2927;49.366;8.530;2022-07-29T09:09:29;28.10;1.00
5802;DHT22;2927;49.366;8.530;2022-07-29T09:11:54;28.00;1.00
5802;DHT22;2927;49.366;8.530;2022-07-29T09:14:20;28.10;1.00
5802;DHT22;2927;49.366;8.530;2022-07-29T09:16:51;27.80;1.00
5802;DHT22;2927;49.366;8.530;2022-07-29T09:19:30;27.50;1.00
5802;DHT22;2927;49.366;8.530;2022-07-29T09:21:57;27.40;1.00
5802;DHT22;2927;49.366;8.530;2022-07-29T09:24:26;27.20;1.00
5802;DHT22;2927;49.366;8.530;2022-07-29T09:26:51;27.50;1.00
5802;DHT22;2927;49.366;8.530;2022-07-29T09:29:22;28.00;1.00
5802;DHT22;2927;49.366;8.530;2022-07-29T09:31:50;27.80;1.00
5802;DHT22;2927;49.366;8.530;2022-07-29T09:34:23;27.80;1.00
5802;DHT22;2927;49.366;8.530;2022-07-29T09:36:50;28.50;1.00
5802;DHT22;2927;49.366;8.530;2022-07-29T09:39:34;28.30;1.00
5802;DHT22;2927;49.366;8.530;2022-07-29T09:42:02;28.00;1.00
5802;DHT22;2927;49.366;8.530;2022-07-29T09:44:49;27.70;1.00
5802;DHT22;2927;49.366;8.530;2022-07-29T09:47:17;27.80;1.00
5802;DHT22;2927;49.366;8.530;2022-07-29T09:49:53;27.80;1.00
5802;DHT22;2927;49.366;8.530;2022-07-29T09:52:20;27.90;1.00
5802;DHT22;2927;49.366;8.530;2022-07-29T09:54:46;27.60;1.00
5802;DHT22;2927;49.366;8.530;2022-07-29T09:57:24;27.80;1.00
5802;DHT22;2927;49.366;8.530;2022-07-29T10:00:17;28.10;1.00
5802;DHT22;2927;49.366;8.530;2022-07-29T10:02:45;27.80;1.00
5802;DHT22;2927;49.366;8.530;2022-07-29T10:05:25;27.80;1.00
5802;DHT22;2927;49.366;8.530;2022-07-29T10:07:52;28.30;1.00
5802;DHT22;2927;49.366;8.530;2022-07-29T10:12:59;27.30;1.00
5802;DHT22;2927;49.366;8.530;2022-07-29T10:15:27;27.00;1.00
5802;DHT22;2927;49.366;8.530;2022-07-29T10:17:55;27.20;1.00
5802;DHT22;2927;49.366;8.530;2022-07-29T10:20:22;27.80;1.00
5802;DHT22;2927;49.366;8.530;2022-07-29T10:22:48;27.90;1.00
5802;DHT22;2927;49.366;8.530;2022-07-29T10:25:16;28.10;1.00
5802;DHT22;2927;49.366;8.530;2022-07-29T10:27:43;28.10;1.00
5802;DHT22;2927;49.366;8.530;2022-07-29T10:30:11;28.20;1.00
5802;DHT22;2927;49.366;8.530;2022-07-29T10:33:05;28.40;1.00
5802;DHT22;2927;49.366;8.530;2022-07-29T10:38:51;29.00;1.00
5802;DHT22;2927;49.366;8.530;2022-07-29T10:44:08;28.20;1.00
5802;DHT22;2927;49.366;8.530;2022-07-29T10:46:39;28.10;1.00
5802;DHT22;2927;49.366;8.530;2022-07-29T10:49:25;28.70;1.00
5802;DHT22;2927;49.366;8.530;2022-07-29T10:52:10;29.20;1.00
5802;DHT22;2927;49.366;8.530;2022-07-29T10:57:22;29.60;1.00
5802;DHT22;2927;49.366;8.530;2022-07-29T11:05:09;29.70;1.00
5802;DHT22;2927;49.366;8.530;2022-07-29T11:07:36;29.50;1.00
5802;DHT22;2927;49.366;8.530;2022-07-29T11:15:10;28.60;1.00
5802;DHT22;2927;49.366;8.530;2022-07-29T11:20:44;28.90;1.00
5802;DHT22;2927;49.366;8.530;2022-07-29T11:23:24;28.90;1.00
5802;DHT22;2927;49.366;8.530;2022-07-29T11:26:19;29.20;1.00
5802;DHT22;2927;49.366;8.530;2022-07-29T11:31:37;28.80;1.00
5802;DHT22;2927;49.366;8.530;2022-07-29T11:39:39;28.10;1.00
5802;DHT22;2927;49.366;8.530;2022-07-29T11:47:51;28.00;1.00
5802;DHT22;2927;49.366;8.530;2022-07-29T11:50:35;28.40;1.00
5802;DHT22;2927;49.366;8.530;2022-07-29T11:53:09;28.30;1.00
5802;DHT22;2927;49.366;8.530;2022-07-29T11:55:38;28.60;1.00
5802;DHT22;2927;49.366;8.530;2022-07-29T11:58:03;28.80;1.00
5802;DHT22;2927;49.366;8.530;2022-07-29T12:00:32;29.00;1.00
5802;DHT22;2927;49.366;8.530;2022-07-29T12:02:59;29.00;1.00
5802;DHT22;2927;49.366;8.530;2022-07-29T12:05:55;28.90;1.00
5802;DHT22;2927;49.366;8.530;2022-07-29T12:08:21;28.60;1.00
5802;DHT22;2927;49.366;8.530;2022-07-29T12:10:49;28.70;1.00
5802;DHT22;2927;49.366;8.530;2022-07-29T12:13:16;29.10;1.00
5802;DHT22;2927;49.366;8.530;2022-07-29T12:15:42;29.20;1.00
5802;DHT22;2927;49.366;8.530;2022-07-29T12:18:20;29.50;1.00
5802;DHT22;2927;49.366;8.530;2022-07-29T12:20:47;29.60;1.00
5802;DHT22;2927;49.366;8.530;2022-07-29T12:23:14;29.60;1.00
5802;DHT22;2927;49.366;8.530;2022-07-29T12:25:42;29.50;1.00
5802;DHT22;2927;49.366;8.530;2022-07-29T12:28:10;29.70;1.00
5802;DHT22;2927;49.366;8.530;2022-07-29T12:30:43;29.50;1.00
5802;DHT22;2927;49.366;8.530;2022-07-29T12:35:49;28.70;1.00
5802;DHT22;2927;49.366;8.530;2022-07-29T12:38:15;28.90;1.00
5802;DHT22;2927;49.366;8.530;2022-07-29T12:40:42;29.10;1.00
5802;DHT22;2927;49.366;8.530;2022-07-29T12:43:14;29.40;99.90
5802;DHT22;2927;49.366;8.530;2022-07-29T12:45:46;29.50;99.90
5802;DHT22;2927;49.366;8.530;2022-07-29T12:48:13;29.30;99.90
5802;DHT22;2927;49.366;8.530;2022-07-29T12:51:00;29.00;99.90
5802;DHT22;2927;49.366;8.530;2022-07-29T12:53:26;29.10;99.90
5802;DHT22;2927;49.366;8.530;2022-07-29T12:55:54;28.80;99.90
5802;DHT22;2927;49.366;8.530;2022-07-29T12:58:38;28.90;99.90
5802;DHT22;2927;49.366;8.530;2022-07-29T13:01:13;28.70;99.90
5802;DHT22;2927;49.366;8.530;2022-07-29T13:03:50;28.60;1.00
5802;DHT22;2927;49.366;8.530;2022-07-29T13:08:59;29.00;99.90
5802;DHT22;2927;49.366;8.530;2022-07-29T13:11:39;29.10;99.90
5802;DHT22;2927;49.366;8.530;2022-07-29T13:14:05;29.30;99.90
5802;DHT22;2927;49.366;8.530;2022-07-29T13:16:31;29.50;99.90
5802;DHT22;2927;49.366;8.530;2022-07-29T13:19:05;29.20;99.90
5802;DHT22;2927;49.366;8.530;2022-07-29T13:21:31;29.40;99.90
5802;DHT22;2927;49.366;8.530;2022-07-29T13:23:57;29.50;99.90
5802;DHT22;2927;49.366;8.530;2022-07-29T13:26:22;29.50;99.90
5802;DHT22;2927;49.366;8.530;2022-07-29T13:28:48;29.60;99.90
5802;DHT22;2927;49.366;8.530;2022-07-29T13:31:13;29.60;99.90
5802;DHT22;2927;49.366;8.530;2022-07-29T13:33:39;29.60;99.90
5802;DHT22;2927;49.366;8.530;2022-07-29T13:36:04;29.50;99.90
5802;DHT22;2927;49.366;8.530;2022-07-29T13:38:30;29.50;99.90
5802;DHT22;2927;49.366;8.530;2022-07-29T13:40:55;29.50;99.90
5802;DHT22;2927;49.366;8.530;2022-07-29T13:43:21;29.40;99.90
5802;DHT22;2927;49.366;8.530;2022-07-29T13:45:46;29.60;99.90
5802;DHT22;2927;49.366;8.530;2022-07-29T13:48:12;30.00;99.90
5802;DHT22;2927;49.366;8.530;2022-07-29T13:50:37;30.20;99.90
5802;DHT22;2927;49.366;8.530;2022-07-29T13:53:03;30.10;99.90
5802;DHT22;2927;49.366;8.530;2022-07-29T13:55:29;30.30;99.90
5802;DHT22;2927;49.366;8.530;2022-07-29T13:57:54;30.20;99.90
5802;DHT22;2927;49.366;8.530;2022-07-29T14:00:20;30.30;99.90
5802;DHT22;2927;49.366;8.530;2022-07-29T14:02:46;30.60;99.90
5802;DHT22;2927;49.366;8.530;2022-07-29T14:05:12;30.50;99.90
5802;DHT22;2927;49.366;8.530;2022-07-29T14:07:38;30.70;99.90
5802;DHT22;2927;49.366;8.530;2022-07-29T14:10:04;30.70;99.90
5802;DHT22;2927;49.366;8.530;2022-07-29T14:12:30;30.80;99.90
5802;DHT22;2927;49.366;8.530;2022-07-29T14:14:56;30.80;99.90
5802;DHT22;2927;49.366;8.530;2022-07-29T14:17:22;30.90;99.90
5802;DHT22;2927;49.366;8.530;2022-07-29T14:19:48;30.40;99.90
5802;DHT22;2927;49.366;8.530;2022-07-29T14:22:13;30.30;99.90
5802;DHT22;2927;49.366;8.530;2022-07-29T14:24:39;30.30;99.90
5802;DHT22;2927;49.366;8.530;2022-07-29T14:27:06;30.30;99.90
5802;DHT22;2927;49.366;8.530;2022-07-29T14:29:32;30.50;99.90
5802;DHT22;2927;49.366;8.530;2022-07-29T14:31:57;30.70;99.90
5802;DHT22;2927;49.366;8.530;2022-07-29T14:34:23;30.80;99.90
5802;DHT22;2927;49.366;8.530;2022-07-29T14:36:49;30.40;99.90
5802;DHT22;2927;49.366;8.530;2022-07-29T14:39:14;30.40;99.90
5802;DHT22;2927;49.366;8.530;2022-07-29T14:41:41;30.20;99.90
5802;DHT22;2927;49.366;8.530;2022-07-29T14:44:06;30.30;99.90
5802;DHT22;2927;49.366;8.530;2022-07-29T14:46:32;30.50;99.90
5802;DHT22;2927;49.366;8.530;2022-07-29T14:48:57;30.70;99.90
5802;DHT22;2927;49.366;8.530;2022-07-29T14:51:23;31.00;99.90
5802;DHT22;2927;49.366;8.530;2022-07-29T14:53:48;31.10;99.90
5802;DHT22;2927;49.366;8.530;2022-07-29T14:56:14;31.10;99.90
5802;DHT22;2927;49.366;8.530;2022-07-29T14:58:40;31.10;99.90
5802;DHT22;2927;49.366;8.530;2022-07-29T15:01:06;31.00;99.90
5802;DHT22;2927;49.366;8.530;2022-07-29T15:03:31;30.90;99.90
5802;DHT22;2927;49.366;8.530;2022-07-29T15:05:57;31.00;99.90
5802;DHT22;2927;49.366;8.530;2022-07-29T15:08:23;31.00;99.90
5802;DHT22;2927;49.366;8.530;2022-07-29T15:10:48;31.10;99.90
5802;DHT22;2927;49.366;8.530;2022-07-29T15:13:14;31.10;99.90
5802;DHT22;2927;49.366;8.530;2022-07-29T15:15:39;31.00;99.90
5802;DHT22;2927;49.366;8.530;2022-07-29T15:18:06;31.00;99.90
5802;DHT22;2927;49.366;8.530;2022-07-29T15:20:32;31.00;99.90
5802;DHT22;2927;49.366;8.530;2022-07-29T15:22:57;30.90;99.90
5802;DHT22;2927;49.366;8.530;2022-07-29T15:25:24;31.10;99.90
5802;DHT22;2927;49.366;8.530;2022-07-29T15:27:50;31.20;99.90
5802;DHT22;2927;49.366;8.530;2022-07-29T15:30:16;31.50;99.90
5802;DHT22;2927;49.366;8.530;2022-07-29T15:32:43;31.70;99.90
5802;DHT22;2927;49.366;8.530;2022-07-29T15:35:08;31.90;99.90
5802;DHT22;2927;49.366;8.530;2022-07-29T15:37:38;32.40;99.90
5802;DHT22;2927;49.366;8.530;2022-07-29T15:40:05;32.60;99.90
5802;DHT22;2927;49.366;8.530;2022-07-29T15:42:31;32.60;99.90
5802;DHT22;2927;49.366;8.530;2022-07-29T15:44:57;32.70;99.90
5802;DHT22;2927;49.366;8.530;2022-07-29T15:47:23;32.80;99.90
5802;DHT22;2927;49.366;8.530;2022-07-29T15:49:48;32.80;99.90
5802;DHT22;2927;49.366;8.530;2022-07-29T15:52:15;32.80;99.90
5802;DHT22;2927;49.366;8.530;2022-07-29T15:54:41;32.60;99.90
5802;DHT22;2927;49.366;8.530;2022-07-29T15:57:07;32.00;99.90
5802;DHT22;2927;49.366;8.530;2022-07-29T15:59:33;31.60;99.90
5802;DHT22;2927;49.366;8.530;2022-07-29T16:01:58;31.70;99.90
5802;DHT22;2927;49.366;8.530;2022-07-29T16:04:25;31.50;99.90
5802;DHT22;2927;49.366;8.530;2022-07-29T16:06:50;31.60;99.90
5802;DHT22;2927;49.366;8.530;2022-07-29T16:09:17;31.70;99.90
5802;DHT22;2927;49.366;8.530;2022-07-29T16:11:42;31.70;99.90
5802;DHT22;2927;49.366;8.530;2022-07-29T16:14:08;31.50;99.90
5802;DHT22;2927;49.366;8.530;2022-07-29T16:16:35;31.40;99.90
5802;DHT22;2927;49.366;8.530;2022-07-29T16:19:01;31.20;99.90
5802;DHT22;2927;49.366;8.530;2022-07-29T16:21:26;31.10;99.90
5802;DHT22;2927;49.366;8.530;2022-07-29T16:23:52;30.90;99.90
5802;DHT22;2927;49.366;8.530;2022-07-29T16:26:17;30.80;99.90
5802;DHT22;2927;49.366;8.530;2022-07-29T16:28:43;31.00;99.90
5802;DHT22;2927;49.366;8.530;2022-07-29T16:31:08;31.00;99.90
5802;DHT22;2927;49.366;8.530;2022-07-29T16:33:34;31.30;99.90
5802;DHT22;2927;49.366;8.530;2022-07-29T16:36:00;31.40;99.90
5802;DHT22;2927;49.366;8.530;2022-07-29T16:38:26;32.00;99.90
5802;DHT22;2927;49.366;8.530;2022-07-29T16:40:51;32.50;99.90
5802;DHT22;2927;49.366;8.530;2022-07-29T16:43:17;32.80;99.90
5802;DHT22;2927;49.366;8.530;2022-07-29T16:45:42;33.30;99.90
5802;DHT22;2927;49.366;8.530;2022-07-29T16:48:08;33.30;99.90
5802;DHT22;2927;49.366;8.530;2022-07-29T16:50:33;33.40;99.90
5802;DHT22;2927;49.366;8.530;2022-07-29T16:52:59;33.20;99.90
5802;DHT22;2927;49.366;8.530;2022-07-29T16:55:24;32.90;99.90
5802;DHT22;2927;49.366;8.530;2022-07-29T16:57:50;33.00;99.90
5802;DHT22;2927;49.366;8.530;2022-07-29T17:00:20;32.90;99.90
5802;DHT22;2927;49.366;8.530;2022-07-29T17:02:45;32.80;99.90
5802;DHT22;2927;49.366;8.530;2022-07-29T17:05:11;33.20;99.90
5802;DHT22;2927;49.366;8.530;2022-07-29T17:07:38;33.20;99.90